Cotopaxi, Colorado
Current Conditions -  °F | °C
As of 1:55 PM on Thursday 27 Nov 2014 (Local Time) from KANK Reporting Station
Clear Clear  
Wind Chill: 59°   Ceiling: Unl
Heat Index: 59°   Visibility: 10mi
Dew Point: 12°   Wind: 17mph
Humidity: 16%   Direction: 240°WSW
Pressure: 30.37"   Gusts: 29mph
Location:  38.37°N, 105.69°W
Report Text: KANK 272055Z AUTO 24015G25KT 10SM CLR 15/M11 A3037 RMK AO1 T01491112
Loading
Personal Weather Stations






























Interactive Weather Map New forecast layout! Learn more

10-Day Weather Forecast

Advertisements
Track Severe Weather on mobile